createdAt,value
2022-11-24T00:00:58.878Z,0.00
2022-11-24T00:01:59.034Z,0.00
2022-11-24T00:02:59.157Z,0.00
2022-11-24T00:03:58.963Z,0.00
2022-11-24T00:04:59.050Z,0.00
2022-11-24T00:05:59.015Z,0.00
2022-11-24T00:06:59.041Z,0.00
2022-11-24T00:07:59.070Z,0.00
2022-11-24T00:08:59.107Z,0.00
2022-11-24T00:09:59.143Z,0.00
2022-11-24T00:10:59.157Z,0.00
2022-11-24T00:11:59.187Z,0.00
2022-11-24T00:12:59.212Z,0.00
2022-11-24T00:13:59.342Z,0.00
2022-11-24T00:14:59.270Z,0.00
2022-11-24T00:15:59.299Z,0.00
2022-11-24T00:16:59.391Z,0.00
2022-11-24T00:17:59.380Z,0.00
2022-11-24T00:18:59.386Z,0.00
2022-11-24T00:19:59.413Z,0.00
2022-11-24T00:20:59.542Z,0.00
2022-11-24T00:21:59.468Z,0.00
2022-11-24T00:22:59.501Z,0.00
2022-11-24T00:23:59.974Z,0.00
2022-11-24T00:24:59.558Z,0.00
2022-11-24T00:25:59.614Z,0.00
2022-11-24T00:26:59.620Z,0.00
2022-11-24T00:28:59.665Z,0.00
2022-11-24T00:29:59.695Z,0.00
2022-11-24T00:30:59.840Z,0.00
2022-11-24T00:31:59.751Z,0.00
2022-11-24T00:32:59.779Z,0.00
2022-11-24T00:33:59.832Z,0.00
2022-11-24T00:34:59.838Z,0.00
2022-11-24T00:36:00.164Z,0.00
2022-11-24T00:36:59.889Z,0.00
2022-11-24T00:37:59.922Z,0.00
2022-11-24T00:38:59.952Z,0.00
2022-11-24T00:39:59.979Z,0.00
2022-11-24T00:41:00.006Z,0.00
2022-11-24T00:42:00.041Z,0.00
2022-11-24T00:43:00.312Z,0.00
2022-11-24T00:44:00.102Z,0.00
2022-11-24T00:45:00.171Z,0.00
2022-11-24T00:46:00.383Z,0.00
2022-11-24T00:47:00.310Z,0.00
2022-11-24T00:48:00.239Z,0.00
2022-11-24T00:49:00.236Z,0.00
2022-11-24T00:50:00.533Z,0.00
2022-11-24T00:51:00.287Z,0.00
2022-11-24T00:53:00.359Z,0.00
2022-11-24T00:54:00.375Z,0.00
2022-11-24T00:55:00.406Z,0.00
2022-11-24T00:56:00.433Z,0.00
2022-11-24T00:57:00.468Z,0.00
2022-11-24T00:59:00.518Z,0.00
2022-11-24T01:00:00.549Z,0.00
2022-11-24T01:01:00.631Z,0.00
2022-11-24T01:02:00.689Z,0.00
2022-11-24T01:03:00.737Z,0.00
2022-11-24T01:04:00.667Z,0.00
2022-11-24T01:05:00.685Z,0.00
2022-11-24T01:06:00.833Z,0.00
2022-11-24T01:07:00.740Z,0.00
2022-11-24T01:08:00.770Z,0.00
2022-11-24T01:09:00.800Z,0.00
2022-11-24T01:10:00.825Z,0.00
2022-11-24T01:12:00.884Z,0.00
2022-11-24T01:13:00.914Z,0.00
2022-11-24T01:14:00.950Z,0.00
2022-11-24T01:15:00.967Z,0.00
2022-11-24T01:16:01.037Z,0.00
2022-11-24T01:17:01.047Z,0.00
2022-11-24T01:18:01.099Z,0.00
2022-11-24T01:19:01.083Z,0.00
2022-11-24T01:20:01.113Z,0.00
2022-11-24T01:21:03.682Z,0.00
2022-11-24T01:22:01.194Z,0.00
2022-11-24T01:23:01.195Z,0.00
2022-11-24T01:24:01.227Z,0.00
2022-11-24T01:25:01.256Z,0.00
2022-11-24T01:26:01.281Z,0.00
2022-11-24T01:27:01.563Z,0.00
2022-11-24T01:28:01.343Z,0.00
2022-11-24T01:29:01.373Z,0.00
2022-11-24T01:30:01.405Z,0.00
2022-11-24T01:31:01.532Z,0.00
2022-11-24T01:32:01.456Z,0.00
2022-11-24T01:33:01.487Z,0.00
2022-11-24T01:34:01.524Z,0.00
2022-11-24T01:35:01.538Z,0.00
2022-11-24T01:37:01.596Z,0.00
2022-11-24T01:38:01.757Z,0.00
2022-11-24T01:40:01.681Z,0.00
2022-11-24T01:41:01.965Z,0.00
2022-11-24T01:42:01.850Z,0.00
2022-11-24T01:43:01.764Z,0.00
2022-11-24T01:44:01.793Z,0.00
2022-11-24T01:45:01.822Z,0.00
2022-11-24T01:46:01.889Z,0.00
2022-11-24T01:47:01.874Z,0.00
2022-11-24T01:48:02.153Z,0.00
2022-11-24T01:49:01.936Z,0.00
2022-11-24T01:50:01.984Z,0.00
2022-11-24T01:51:01.991Z,0.00
2022-11-24T01:53:02.067Z,0.00
2022-11-24T01:54:02.100Z,0.00
2022-11-24T01:55:02.405Z,0.00
2022-11-24T01:56:02.127Z,0.00
2022-11-24T01:57:02.157Z,0.00
2022-11-24T01:58:02.188Z,0.00
2022-11-24T01:59:02.218Z,0.00
2022-11-24T02:00:02.250Z,0.00
2022-11-24T02:01:02.356Z,0.00
2022-11-24T02:02:02.601Z,0.00
2022-11-24T02:03:02.353Z,0.00
2022-11-24T02:04:02.409Z,0.00
2022-11-24T02:05:02.401Z,0.00
2022-11-24T02:06:02.419Z,0.00
2022-11-24T02:07:02.542Z,0.00
2022-11-24T02:08:02.466Z,0.00
2022-11-24T02:09:02.514Z,0.00
2022-11-24T02:10:02.545Z,0.00
2022-11-24T02:12:02.582Z,0.00
2022-11-24T02:13:02.612Z,0.00
2022-11-24T02:14:02.643Z,0.00
2022-11-24T02:15:02.912Z,0.00
2022-11-24T02:16:02.795Z,0.00
2022-11-24T02:17:02.723Z,0.00
2022-11-24T02:18:02.750Z,0.00
2022-11-24T02:19:02.787Z,0.00
2022-11-24T02:20:02.810Z,0.00
2022-11-24T02:21:03.089Z,0.00
2022-11-24T02:22:02.870Z,0.00
2022-11-24T02:23:02.987Z,0.00
2022-11-24T02:24:02.932Z,0.00
2022-11-24T02:25:02.946Z,0.00
2022-11-24T02:26:03.021Z,0.00
2022-11-24T02:27:03.007Z,0.00
2022-11-24T02:28:03.039Z,0.00
2022-11-24T02:30:03.099Z,0.00
2022-11-24T02:31:03.188Z,0.00
2022-11-24T02:32:03.148Z,0.00
2022-11-24T02:33:03.179Z,0.00
2022-11-24T02:34:03.224Z,0.00
2022-11-24T02:35:03.236Z,0.00
2022-11-24T02:36:03.258Z,0.00
2022-11-24T02:37:03.388Z,0.00
2022-11-24T02:38:03.434Z,0.00
2022-11-24T02:39:03.651Z,0.00
2022-11-24T02:40:03.389Z,0.00
2022-11-24T02:41:03.459Z,0.00
2022-11-24T02:42:03.448Z,0.00
2022-11-24T02:43:03.463Z,0.00
2022-11-24T02:44:03.488Z,0.00
2022-11-24T02:45:03.513Z,0.00
2022-11-24T02:46:03.755Z,0.00
2022-11-24T02:47:03.570Z,0.00
2022-11-24T02:48:03.608Z,0.00
2022-11-24T02:49:03.629Z,0.00
2022-11-24T02:50:03.655Z,0.00
2022-11-24T02:51:03.684Z,0.00
2022-11-24T02:52:03.711Z,0.00
2022-11-24T02:53:03.792Z,0.00
2022-11-24T02:54:03.778Z,0.00
2022-11-24T02:55:03.797Z,0.00
2022-11-24T02:56:03.843Z,0.00
2022-11-24T02:57:03.857Z,0.00
2022-11-24T02:58:03.918Z,0.00
2022-11-24T02:59:03.910Z,0.00
2022-11-24T03:00:03.937Z,0.00
2022-11-24T03:01:04.057Z,0.00
2022-11-24T03:02:04.091Z,0.00
2022-11-24T03:03:04.112Z,0.00
2022-11-24T03:04:04.354Z,0.00
2022-11-24T03:05:04.091Z,0.00
2022-11-24T03:06:04.109Z,0.00
2022-11-24T03:07:04.141Z,0.00
2022-11-24T03:08:04.265Z,0.00
2022-11-24T03:09:04.194Z,0.00
2022-11-24T03:10:04.223Z,0.00
2022-11-24T03:11:04.609Z,0.00
2022-11-24T03:12:04.285Z,0.00
2022-11-24T03:13:04.303Z,0.00
2022-11-24T03:14:04.356Z,0.00
2022-11-24T03:15:04.359Z,0.00
2022-11-24T03:16:04.439Z,0.00
2022-11-24T03:17:04.420Z,0.00
2022-11-24T03:18:04.450Z,0.00
2022-11-24T03:19:04.473Z,0.00
2022-11-24T03:20:05.328Z,0.00
2022-11-24T03:21:04.530Z,0.00
2022-11-24T03:22:04.861Z,0.00
2022-11-24T03:23:04.585Z,0.00
2022-11-24T03:24:04.620Z,0.00
2022-11-24T03:25:04.648Z,0.00
2022-11-24T03:26:04.671Z,0.00
2022-11-24T03:27:04.705Z,0.00
2022-11-24T03:28:04.749Z,0.00
2022-11-24T03:30:05.177Z,0.00
2022-11-24T03:31:04.844Z,0.00
2022-11-24T03:32:04.854Z,0.00
2022-11-24T03:33:04.876Z,0.00
2022-11-24T03:34:04.900Z,0.00
2022-11-24T03:35:04.930Z,0.00
2022-11-24T03:36:04.956Z,0.00
2022-11-24T03:37:04.986Z,0.00
2022-11-24T03:38:05.014Z,0.00
2022-11-24T03:40:05.066Z,0.00
2022-11-24T03:41:05.097Z,0.00
2022-11-24T03:42:05.125Z,0.00
2022-11-24T03:44:05.487Z,0.00
2022-11-24T03:45:38.069Z,0.00
2022-11-24T03:46:05.308Z,0.00
2022-11-24T03:47:05.268Z,0.00
2022-11-24T03:49:05.324Z,0.00
2022-11-24T03:50:05.352Z,0.00
2022-11-24T03:52:08.216Z,0.00
2022-11-24T03:53:05.434Z,0.00
2022-11-24T03:54:05.465Z,0.00
2022-11-24T03:55:05.493Z,0.00
2022-11-24T03:56:05.624Z,0.00
2022-11-24T03:57:05.548Z,0.00
2022-11-24T03:59:05.605Z,0.00
2022-11-24T04:00:05.886Z,0.00
2022-11-24T04:01:05.765Z,0.00
2022-11-24T04:02:05.853Z,0.00
2022-11-24T04:03:05.833Z,0.00
2022-11-24T04:04:05.744Z,0.00
2022-11-24T04:05:05.777Z,0.00
2022-11-24T04:07:05.830Z,0.00
2022-11-24T04:08:06.157Z,0.00
2022-11-24T04:09:05.888Z,0.00
2022-11-24T04:10:05.917Z,0.00
2022-11-24T04:11:05.947Z,0.00
2022-11-24T04:12:05.972Z,0.00
2022-11-24T04:13:06.000Z,0.00
2022-11-24T04:14:11.981Z,0.00
2022-11-24T04:15:06.068Z,0.00
2022-11-24T04:16:06.161Z,0.00
2022-11-24T04:17:06.119Z,0.00
2022-11-24T04:18:06.163Z,0.00
2022-11-24T04:19:06.170Z,0.00
2022-11-24T04:20:06.195Z,0.00
2022-11-24T04:21:06.534Z,0.00
2022-11-24T04:22:06.258Z,0.00
2022-11-24T04:23:06.284Z,0.00
2022-11-24T04:24:06.312Z,0.00
2022-11-24T04:25:06.341Z,0.00
2022-11-24T04:26:06.377Z,0.00
2022-11-24T04:27:06.501Z,0.00
2022-11-24T04:28:06.671Z,0.00
2022-11-24T04:29:06.460Z,0.00
2022-11-24T04:30:06.478Z,0.00
2022-11-24T04:31:06.571Z,0.00
2022-11-24T04:32:06.538Z,0.00
2022-11-24T04:33:06.561Z,0.00
2022-11-24T04:34:06.612Z,0.00
2022-11-24T04:35:06.624Z,0.00
2022-11-24T04:36:06.653Z,0.00
2022-11-24T04:37:06.681Z,0.00
2022-11-24T04:38:06.706Z,0.00
2022-11-24T04:39:23.589Z,0.00
2022-11-24T04:40:06.761Z,0.00
2022-11-24T04:41:06.787Z,0.00
2022-11-24T04:42:06.818Z,0.00
2022-11-24T04:43:06.848Z,0.00
2022-11-24T04:44:06.973Z,0.00
2022-11-24T04:45:06.907Z,0.00
2022-11-24T04:46:06.945Z,0.00
2022-11-24T04:47:07.263Z,0.00
2022-11-24T04:48:06.988Z,0.00
2022-11-24T04:49:07.034Z,0.00
2022-11-24T04:50:07.063Z,0.00
2022-11-24T04:51:07.074Z,0.00
2022-11-24T04:52:07.110Z,0.00
2022-11-24T04:53:07.732Z,0.00
2022-11-24T04:54:07.160Z,0.00
2022-11-24T04:55:07.191Z,0.00
2022-11-24T04:56:07.210Z,0.00
2022-11-24T04:57:07.240Z,0.00
2022-11-24T04:58:07.277Z,0.00
2022-11-24T04:59:08.645Z,0.00
2022-11-24T05:00:07.329Z,0.00
2022-11-24T05:01:07.360Z,0.00
2022-11-24T05:02:07.397Z,0.00
2022-11-24T05:03:07.408Z,0.00
2022-11-24T05:04:07.533Z,0.00
2022-11-24T05:05:07.520Z,0.00
2022-11-24T05:06:07.516Z,0.00
2022-11-24T05:07:07.575Z,0.00
2022-11-24T05:08:07.545Z,0.00
2022-11-24T05:09:07.577Z,0.00
2022-11-24T05:10:07.602Z,0.00
2022-11-24T05:11:07.887Z,0.00
2022-11-24T05:12:07.659Z,0.00
2022-11-24T05:13:07.755Z,0.00
2022-11-24T05:14:07.711Z,0.00
2022-11-24T05:15:07.747Z,0.00
2022-11-24T05:16:07.836Z,0.00
2022-11-24T05:17:07.800Z,0.00
2022-11-24T05:18:07.831Z,0.00
2022-11-24T05:19:07.866Z,0.00
2022-11-24T05:20:07.879Z,0.00
2022-11-24T05:21:07.918Z,0.00
2022-11-24T05:22:07.991Z,0.00
2022-11-24T05:23:07.972Z,0.00
2022-11-24T05:24:07.997Z,0.00
2022-11-24T05:25:08.026Z,0.00
2022-11-24T05:26:08.153Z,0.00
2022-11-24T05:27:08.083Z,0.00
2022-11-24T05:28:08.112Z,0.00
2022-11-24T05:29:08.243Z,0.00
2022-11-24T05:30:08.467Z,0.00
2022-11-24T05:31:08.260Z,0.00
2022-11-24T05:32:08.251Z,0.00
2022-11-24T05:33:08.253Z,0.00
2022-11-24T05:35:08.308Z,0.00
2022-11-24T05:37:08.615Z,0.00
2022-11-24T05:38:08.420Z,0.00
2022-11-24T05:39:08.418Z,0.00
2022-11-24T05:40:08.450Z,0.00
2022-11-24T05:41:08.484Z,0.00
2022-11-24T05:42:08.506Z,0.00
2022-11-24T05:43:08.533Z,0.00
2022-11-24T05:44:08.569Z,0.00
2022-11-24T05:45:08.595Z,0.00
2022-11-24T05:46:08.619Z,0.00
2022-11-24T05:47:08.691Z,0.00
2022-11-24T05:48:08.792Z,0.00
2022-11-24T05:49:09.006Z,0.00
2022-11-24T05:50:08.786Z,0.00
2022-11-24T05:51:09.502Z,0.00
2022-11-24T05:52:08.788Z,0.00
2022-11-24T05:53:08.814Z,0.00
2022-11-24T05:55:09.195Z,0.00
2022-11-24T05:56:08.902Z,0.00
2022-11-24T05:57:08.933Z,0.00
2022-11-24T05:58:08.965Z,0.00
2022-11-24T05:59:10.139Z,0.00
2022-11-24T06:00:09.017Z,0.00
2022-11-24T06:01:09.046Z,0.00
2022-11-24T06:02:09.215Z,0.00
2022-11-24T06:03:09.230Z,0.00
2022-11-24T06:04:09.129Z,0.00
2022-11-24T06:05:09.182Z,0.00
2022-11-24T06:07:09.263Z,0.00
2022-11-24T06:08:09.498Z,0.00
2022-11-24T06:09:09.268Z,0.00
2022-11-24T06:10:09.298Z,0.00
2022-11-24T06:11:09.358Z,0.00
2022-11-24T06:12:09.354Z,0.00
2022-11-24T06:13:09.483Z,0.00
2022-11-24T06:14:11.274Z,0.00
2022-11-24T06:15:09.436Z,0.00
2022-11-24T06:16:09.577Z,0.00
2022-11-24T06:17:09.495Z,0.00
2022-11-24T06:18:09.523Z,0.00
2022-11-24T06:19:09.551Z,0.00
2022-11-24T06:21:11.501Z,0.00
2022-11-24T06:22:09.644Z,0.00
2022-11-24T06:24:09.700Z,0.00
2022-11-24T06:25:09.723Z,0.00
2022-11-24T06:26:09.755Z,0.00
2022-11-24T06:27:09.801Z,0.00
2022-11-24T06:28:09.812Z,0.00
2022-11-24T06:29:09.832Z,0.00
2022-11-24T06:30:09.893Z,0.00
2022-11-24T06:31:09.923Z,0.00
2022-11-24T06:32:09.991Z,0.00
2022-11-24T06:33:09.999Z,0.00
2022-11-24T06:34:09.977Z,0.00
2022-11-24T06:35:10.004Z,0.00
2022-11-24T06:36:10.031Z,0.00
2022-11-24T06:37:10.062Z,4.00
2022-11-24T06:38:10.102Z,0.00
2022-11-24T06:39:10.129Z,0.00
2022-11-24T06:40:10.154Z,4.00
2022-11-24T06:41:10.176Z,4.00
2022-11-24T06:42:10.212Z,4.00
2022-11-24T06:43:10.253Z,4.00
2022-11-24T06:44:10.261Z,8.00
2022-11-24T06:45:10.586Z,8.00
2022-11-24T06:46:10.413Z,12.00
2022-11-24T06:47:10.356Z,12.00
2022-11-24T06:48:10.380Z,16.00
2022-11-24T06:49:10.405Z,16.00
2022-11-24T06:50:10.431Z,16.00
2022-11-24T06:51:10.455Z,20.00
2022-11-24T06:52:10.816Z,24.00
2022-11-24T06:53:10.509Z,28.00
2022-11-24T06:54:10.538Z,32.00
2022-11-24T06:55:10.576Z,36.00
2022-11-24T06:56:15.760Z,40.00
2022-11-24T06:57:10.625Z,48.00
2022-11-24T06:58:10.653Z,56.00
2022-11-24T06:59:10.953Z,60.00
2022-11-24T07:00:10.713Z,64.00
2022-11-24T07:01:10.810Z,72.00
2022-11-24T07:02:10.771Z,80.00
2022-11-24T07:03:10.826Z,84.00
2022-11-24T07:04:10.823Z,96.00
2022-11-24T07:05:10.953Z,100.00
2022-11-24T07:06:11.182Z,112.00
2022-11-24T07:07:10.982Z,120.00
2022-11-24T07:08:16.174Z,132.00
2022-11-24T07:09:10.959Z,140.00
2022-11-24T07:10:10.992Z,148.00
2022-11-24T07:11:11.019Z,160.00
2022-11-24T07:12:11.052Z,172.00
2022-11-24T07:13:11.075Z,184.00
2022-11-24T07:14:11.109Z,192.00
2022-11-24T07:15:11.159Z,204.00
2022-11-24T07:16:11.228Z,216.00
2022-11-24T07:17:11.190Z,228.00
2022-11-24T07:18:11.245Z,236.00
2022-11-24T07:19:11.248Z,244.00
2022-11-24T07:20:11.278Z,252.00
2022-11-24T07:21:11.404Z,256.00
2022-11-24T07:22:11.334Z,260.00
2022-11-24T07:23:11.361Z,264.00
2022-11-24T07:24:11.387Z,276.00
2022-11-24T07:25:11.719Z,280.00
2022-11-24T07:26:11.441Z,284.00
2022-11-24T07:27:11.468Z,284.00
2022-11-24T07:28:11.502Z,276.00
2022-11-24T07:29:11.526Z,276.00
2022-11-24T07:30:11.556Z,268.00
2022-11-24T07:31:11.708Z,260.00
2022-11-24T07:32:11.696Z,252.00
2022-11-24T07:33:11.640Z,240.00
2022-11-24T07:34:11.671Z,236.00
2022-11-24T07:35:11.696Z,216.00
2022-11-24T07:36:11.744Z,224.00
2022-11-24T07:37:12.008Z,212.00
2022-11-24T07:38:11.787Z,232.00
2022-11-24T07:39:11.814Z,260.00
2022-11-24T07:40:11.843Z,264.00
2022-11-24T07:41:11.866Z,276.00
2022-11-24T07:42:11.911Z,292.00
2022-11-24T07:43:17.147Z,320.00
2022-11-24T07:44:12.251Z,352.00
2022-11-24T07:45:11.978Z,396.00
2022-11-24T07:46:12.079Z,440.00
2022-11-24T07:47:12.059Z,464.00
2022-11-24T07:48:12.062Z,480.00
2022-11-24T07:49:12.091Z,508.00
2022-11-24T07:50:12.121Z,500.00
2022-11-24T07:51:12.158Z,472.00
2022-11-24T07:52:12.175Z,432.00
2022-11-24T07:53:12.203Z,404.00
2022-11-24T07:54:12.236Z,388.00
2022-11-24T07:55:12.259Z,380.00
2022-11-24T07:56:12.299Z,384.00
2022-11-24T07:57:12.317Z,424.00
2022-11-24T07:58:12.453Z,440.00
2022-11-24T07:59:12.388Z,416.00
2022-11-24T08:00:12.404Z,500.00
2022-11-24T08:02:12.934Z,604.00
2022-11-24T08:03:12.576Z,644.00
2022-11-24T08:04:12.567Z,656.00
2022-11-24T08:05:12.544Z,740.00
2022-11-24T08:06:35.357Z,804.00
2022-11-24T08:07:12.647Z,808.00
2022-11-24T08:08:12.633Z,864.00
2022-11-24T08:09:12.687Z,892.00
2022-11-24T08:10:12.703Z,908.00
2022-11-24T08:11:12.814Z,964.00
2022-11-24T08:12:12.760Z,940.00
2022-11-24T08:13:12.771Z,920.00
2022-11-24T08:14:13.057Z,948.00
2022-11-24T08:15:12.829Z,984.00
2022-11-24T08:16:13.018Z,964.00
2022-11-24T08:17:13.006Z,944.00
2022-11-24T08:18:12.912Z,976.00
2022-11-24T08:19:12.966Z,956.00
2022-11-24T08:20:12.964Z,984.00
2022-11-24T08:21:13.247Z,1156.00
2022-11-24T08:22:13.027Z,1312.00
2022-11-24T08:23:13.049Z,1216.00
2022-11-24T08:24:13.079Z,1160.00
2022-11-24T08:25:13.141Z,1092.00
2022-11-24T08:26:13.132Z,1104.00
2022-11-24T08:27:13.167Z,1172.00
2022-11-24T08:28:13.491Z,1296.00
2022-11-24T08:29:13.229Z,1292.00
2022-11-24T08:30:13.276Z,1360.00
2022-11-24T08:31:13.283Z,1224.00
2022-11-24T08:32:17.394Z,1124.00
2022-11-24T08:33:13.336Z,1036.00
2022-11-24T08:34:13.365Z,1008.00
2022-11-24T08:35:14.379Z,1024.00
2022-11-24T08:36:13.444Z,1040.00
2022-11-24T08:37:13.447Z,1056.00
2022-11-24T08:38:13.474Z,1208.00
2022-11-24T08:39:13.522Z,1328.00
2022-11-24T08:40:13.539Z,1256.00
2022-11-24T08:41:13.564Z,1212.00
2022-11-24T08:42:13.836Z,1204.00
2022-11-24T08:43:13.612Z,1284.00
2022-11-24T08:44:13.655Z,1288.00
2022-11-24T08:45:20.766Z,1264.00
2022-11-24T08:46:13.885Z,1192.00
2022-11-24T08:47:13.727Z,1244.00
2022-11-24T08:48:13.769Z,1052.00
2022-11-24T08:49:14.033Z,876.00
2022-11-24T08:50:13.814Z,840.00
2022-11-24T08:51:13.931Z,968.00
2022-11-24T08:52:14.117Z,1168.00
2022-11-24T08:54:13.933Z,1660.00
2022-11-24T08:55:13.956Z,1672.00
2022-11-24T08:56:13.993Z,1740.00
2022-11-24T08:57:17.288Z,1860.00
2022-11-24T08:58:14.038Z,1836.00
2022-11-24T08:59:14.166Z,1816.00
2022-11-24T09:00:14.095Z,1776.00
2022-11-24T09:01:14.369Z,1800.00
2022-11-24T09:02:14.155Z,1624.00
2022-11-24T09:03:14.184Z,1448.00
2022-11-24T09:04:14.301Z,1288.00
2022-11-24T09:05:43.609Z,1244.00
2022-11-24T09:06:14.270Z,1288.00
2022-11-24T09:08:14.590Z,1428.00
2022-11-24T09:09:14.355Z,1536.00
2022-11-24T09:10:14.380Z,1616.00
2022-11-24T09:11:14.405Z,1580.00
2022-11-24T09:12:14.887Z,1548.00
2022-11-24T09:13:14.464Z,1508.00
2022-11-24T09:14:14.488Z,1488.00
2022-11-24T09:15:14.519Z,1476.00
2022-11-24T09:16:14.909Z,1488.00
2022-11-24T09:17:14.648Z,1540.00
2022-11-24T09:18:14.703Z,1552.00
2022-11-24T09:19:14.627Z,1464.00
2022-11-24T09:20:14.664Z,1468.00
2022-11-24T09:21:14.689Z,1620.00
2022-11-24T09:22:14.717Z,1940.00
2022-11-24T09:23:14.747Z,2176.00
2022-11-24T09:24:14.789Z,2032.00
2022-11-24T09:25:14.805Z,2016.00
2022-11-24T09:26:15.083Z,1680.00
2022-11-24T09:27:14.858Z,1492.00
2022-11-24T09:28:14.882Z,1460.00
2022-11-24T09:29:14.912Z,1420.00
2022-11-24T09:30:14.938Z,1456.00
2022-11-24T09:31:14.997Z,1492.00
2022-11-24T09:32:14.997Z,1740.00
2022-11-24T09:33:15.024Z,1624.00
2022-11-24T09:34:15.099Z,1576.00
2022-11-24T09:35:15.086Z,1488.00
2022-11-24T09:36:15.109Z,1452.00
2022-11-24T09:37:15.140Z,1496.00
2022-11-24T09:38:15.167Z,1584.00
2022-11-24T09:39:15.444Z,1704.00
2022-11-24T09:40:15.255Z,1736.00
2022-11-24T09:41:15.256Z,1596.00
2022-11-24T09:42:15.336Z,1628.00
2022-11-24T09:43:15.306Z,1576.00
2022-11-24T09:44:15.335Z,1528.00
2022-11-24T09:45:15.362Z,1484.00
2022-11-24T09:46:15.720Z,1500.00
2022-11-24T09:48:15.547Z,1544.00
2022-11-24T09:49:15.474Z,1644.00
2022-11-24T09:50:15.504Z,1512.00
2022-11-24T09:51:15.533Z,1568.00
2022-11-24T09:52:15.562Z,1620.00
2022-11-24T09:53:15.594Z,1588.00
2022-11-24T09:54:15.615Z,1604.00
2022-11-24T09:55:15.645Z,1580.00
2022-11-24T09:56:15.694Z,1648.00
2022-11-24T09:57:15.703Z,1592.00
2022-11-24T09:58:15.766Z,1548.00
2022-11-24T09:59:16.057Z,1604.00
2022-11-24T10:00:15.790Z,1636.00
2022-11-24T10:01:15.865Z,1564.00
2022-11-24T10:02:15.844Z,1584.00
2022-11-24T10:03:15.906Z,1512.00
2022-11-24T10:04:15.958Z,1612.00
2022-11-24T10:05:15.962Z,1484.00
2022-11-24T10:06:15.955Z,1476.00
2022-11-24T10:07:16.084Z,1492.00
2022-11-24T10:08:16.017Z,1500.00
2022-11-24T10:09:16.061Z,1504.00
2022-11-24T10:10:21.224Z,1500.00
2022-11-24T10:11:16.095Z,1528.00
2022-11-24T10:12:16.154Z,1648.00
2022-11-24T10:13:16.154Z,1504.00
2022-11-24T10:14:16.181Z,1528.00
2022-11-24T10:15:16.222Z,1544.00
2022-11-24T10:16:16.297Z,1520.00
2022-11-24T10:17:16.516Z,1596.00
2022-11-24T10:18:17.176Z,1536.00
2022-11-24T10:19:16.321Z,1616.00
2022-11-24T10:20:16.384Z,1528.00
2022-11-24T10:21:16.375Z,1500.00
2022-11-24T10:22:16.408Z,1564.00
2022-11-24T10:23:16.441Z,1536.00
2022-11-24T10:24:16.760Z,1524.00
2022-11-24T10:25:16.500Z,1624.00
2022-11-24T10:26:16.515Z,1628.00
2022-11-24T10:27:16.550Z,1532.00
2022-11-24T10:28:16.598Z,1728.00
2022-11-24T10:29:16.609Z,1504.00
2022-11-24T10:30:16.634Z,1544.00
2022-11-24T10:31:16.987Z,1564.00
2022-11-24T10:32:16.683Z,1456.00
2022-11-24T10:33:16.725Z,1540.00
2022-11-24T10:34:16.740Z,1600.00
2022-11-24T10:35:16.774Z,1496.00
2022-11-24T10:36:16.796Z,1468.00
2022-11-24T10:37:16.825Z,1660.00
2022-11-24T10:38:17.151Z,1840.00
2022-11-24T10:40:33.483Z,1656.00
2022-11-24T10:41:16.936Z,1652.00
2022-11-24T10:42:16.967Z,1572.00
2022-11-24T10:43:17.010Z,1584.00
2022-11-24T10:44:17.051Z,1628.00
2022-11-24T10:45:17.305Z,1520.00
2022-11-24T10:46:17.347Z,1680.00
2022-11-24T10:47:17.107Z,1784.00
2022-11-24T10:48:17.134Z,1680.00
2022-11-24T10:49:17.161Z,1760.00
2022-11-24T10:50:17.192Z,1864.00
2022-11-24T10:51:17.224Z,1572.00
2022-11-24T10:52:17.497Z,1696.00
2022-11-24T10:53:17.277Z,1784.00
2022-11-24T10:54:17.305Z,1720.00
2022-11-24T10:55:17.339Z,1712.00
2022-11-24T10:56:17.392Z,1740.00
2022-11-24T10:57:17.388Z,1648.00
2022-11-24T10:58:17.437Z,1668.00
2022-11-24T10:59:17.724Z,1668.00
2022-11-24T11:00:17.492Z,1664.00
2022-11-24T11:01:17.609Z,1656.00
2022-11-24T11:02:17.549Z,1660.00
2022-11-24T11:03:17.553Z,1696.00
2022-11-24T11:04:17.587Z,1804.00
2022-11-24T11:05:17.612Z,1664.00
2022-11-24T11:06:17.641Z,1532.00
2022-11-24T11:07:17.749Z,1644.00
2022-11-24T11:08:17.696Z,1656.00
2022-11-24T11:09:17.732Z,1656.00
2022-11-24T11:10:17.753Z,1656.00
2022-11-24T11:11:17.780Z,1664.00
2022-11-24T11:12:42.647Z,1660.00
2022-11-24T11:13:17.837Z,1656.00
2022-11-24T11:14:17.882Z,1652.00
2022-11-24T11:15:17.896Z,1712.00
2022-11-24T11:16:18.008Z,1668.00
2022-11-24T11:17:17.949Z,1648.00
2022-11-24T11:18:17.984Z,1668.00
2022-11-24T11:19:47.412Z,1760.00
2022-11-24T11:20:18.037Z,1804.00
2022-11-24T11:21:18.064Z,1676.00
2022-11-24T11:22:18.096Z,1684.00
2022-11-24T11:23:18.115Z,1712.00
2022-11-24T11:24:18.144Z,1800.00
2022-11-24T11:25:18.180Z,1692.00
2022-11-24T11:26:18.206Z,1636.00
2022-11-24T11:27:18.246Z,1652.00
2022-11-24T11:28:18.801Z,1564.00
2022-11-24T11:31:20.663Z,1656.00
2022-11-24T11:34:25.241Z,1704.00
2022-11-24T11:35:18.457Z,1620.00
2022-11-24T11:36:18.512Z,1708.00
2022-11-24T11:37:18.534Z,1704.00
2022-11-24T11:38:18.555Z,1652.00
2022-11-24T11:40:18.597Z,1684.00
2022-11-24T11:41:18.634Z,1536.00
2022-11-24T11:42:45.404Z,1624.00
2022-11-24T11:43:18.680Z,1632.00
2022-11-24T11:44:18.722Z,1652.00
2022-11-24T11:45:18.819Z,1632.00
2022-11-24T11:46:18.868Z,1636.00
2022-11-24T11:47:18.800Z,1640.00
2022-11-24T11:48:18.843Z,1528.00
2022-11-24T11:49:18.854Z,1636.00
2022-11-24T11:50:18.916Z,1596.00
2022-11-24T11:51:23.617Z,1628.00
2022-11-24T11:52:18.980Z,1656.00
2022-11-24T11:53:18.986Z,1636.00
2022-11-24T11:54:18.998Z,1572.00
2022-11-24T11:55:19.265Z,1636.00
2022-11-24T11:56:19.221Z,1636.00
2022-11-24T11:57:19.074Z,1644.00
2022-11-24T11:58:19.101Z,1644.00
2022-11-24T11:59:19.145Z,1640.00
2022-11-24T12:00:19.160Z,1648.00
2022-11-24T12:01:19.184Z,1632.00
2022-11-24T12:02:19.409Z,1636.00
2022-11-24T12:03:19.353Z,1564.00
2022-11-24T12:05:19.318Z,1560.00
2022-11-24T12:06:19.329Z,1636.00
2022-11-24T12:07:19.744Z,1628.00
2022-11-24T12:08:21.562Z,1600.00
2022-11-24T12:09:21.011Z,1720.00
2022-11-24T12:10:19.442Z,1632.00
2022-11-24T12:11:19.469Z,1612.00
2022-11-24T12:12:19.494Z,1624.00
2022-11-24T12:13:19.522Z,1624.00
2022-11-24T12:14:19.673Z,1640.00
2022-11-24T12:15:19.586Z,1648.00
2022-11-24T12:16:19.699Z,1632.00
2022-11-24T12:17:19.635Z,1632.00
2022-11-24T12:18:40.631Z,1628.00
2022-11-24T12:19:19.695Z,1620.00
2022-11-24T12:20:19.769Z,1616.00
2022-11-24T12:21:26.044Z,1624.00
2022-11-24T12:22:19.778Z,1624.00
2022-11-24T12:23:19.811Z,1620.00
2022-11-24T12:25:20.201Z,1612.00
2022-11-24T12:26:19.893Z,1616.00
2022-11-24T12:27:23.165Z,1612.00
2022-11-24T12:29:19.977Z,1600.00
2022-11-24T12:30:20.005Z,1608.00
2022-11-24T12:31:20.142Z,1604.00
2022-11-24T12:32:20.067Z,1600.00
2022-11-24T12:33:20.101Z,1592.00
2022-11-24T12:34:20.120Z,1596.00
2022-11-24T12:35:20.149Z,1592.00
2022-11-24T12:36:20.187Z,1584.00
2022-11-24T12:37:20.232Z,1580.00
2022-11-24T12:38:20.549Z,1576.00
2022-11-24T12:40:20.311Z,1572.00
2022-11-24T12:41:49.364Z,1572.00
2022-11-24T12:42:20.353Z,1568.00
2022-11-24T12:43:20.401Z,1560.00
2022-11-24T12:44:20.398Z,1560.00
2022-11-24T12:45:20.427Z,1560.00
2022-11-24T12:46:20.540Z,1556.00
2022-11-24T12:47:20.487Z,1556.00
2022-11-24T12:48:20.519Z,1552.00
2022-11-24T12:50:20.671Z,1548.00
2022-11-24T12:51:20.596Z,1548.00
2022-11-24T12:52:20.622Z,1548.00
2022-11-24T12:53:20.752Z,1548.00
2022-11-24T12:54:20.686Z,1552.00
2022-11-24T12:55:20.711Z,1560.00
2022-11-24T12:56:21.039Z,1564.00
2022-11-24T12:57:20.767Z,1564.00
2022-11-24T12:58:20.820Z,1568.00
2022-11-24T12:59:20.822Z,1580.00
2022-11-24T13:00:20.854Z,1584.00
2022-11-24T13:01:20.933Z,1588.00
2022-11-24T13:02:21.038Z,1572.00
2022-11-24T13:03:21.290Z,1572.00
2022-11-24T13:04:21.062Z,1576.00
2022-11-24T13:05:20.991Z,1584.00
2022-11-24T13:06:21.024Z,1592.00
2022-11-24T13:07:21.078Z,1592.00
2022-11-24T13:08:21.078Z,1588.00
2022-11-24T13:09:21.123Z,1580.00
2022-11-24T13:11:21.166Z,1576.00
2022-11-24T13:12:21.187Z,1576.00
2022-11-24T13:13:21.323Z,1568.00
2022-11-24T13:14:21.246Z,1552.00
2022-11-24T13:15:44.787Z,1544.00
2022-11-24T13:16:36.266Z,1544.00
2022-11-24T13:17:31.163Z,1544.00
2022-11-24T13:18:21.514Z,1544.00
2022-11-24T13:19:21.388Z,1552.00
2022-11-24T13:20:21.419Z,1560.00
2022-11-24T13:21:21.443Z,1572.00
2022-11-24T13:23:21.760Z,1560.00
2022-11-24T13:24:21.536Z,1564.00